sensor_id;sensor_type;location;lat;lon;timestamp;P1;durP1;ratioP1;P2;durP2;ratioP2
45358;SDS011;31096;49.292;8.710;2023-04-21T00:01:58;15.53;;;9.07;;
45358;SDS011;31096;49.292;8.710;2023-04-21T00:06:49;14.75;;;8.40;;
45358;SDS011;31096;49.292;8.710;2023-04-21T00:11:42;14.63;;;9.15;;
45358;SDS011;31096;49.292;8.710;2023-04-21T00:16:32;16.20;;;9.88;;
45358;SDS011;31096;49.292;8.710;2023-04-21T00:21:24;14.53;;;8.33;;
45358;SDS011;31096;49.292;8.710;2023-04-21T00:26:15;15.65;;;9.57;;
45358;SDS011;31096;49.292;8.710;2023-04-21T00:31:10;16.20;;;8.80;;
45358;SDS011;31096;49.292;8.710;2023-04-21T00:36:04;15.63;;;9.32;;
45358;SDS011;31096;49.292;8.710;2023-04-21T00:40:54;18.33;;;9.13;;
45358;SDS011;31096;49.292;8.710;2023-04-21T00:45:45;17.50;;;9.95;;
45358;SDS011;31096;49.292;8.710;2023-04-21T00:50:36;17.93;;;9.10;;
45358;SDS011;31096;49.292;8.710;2023-04-21T00:55:27;18.80;;;10.35;;
45358;SDS011;31096;49.292;8.710;2023-04-21T01:00:18;15.33;;;9.20;;
45358;SDS011;31096;49.292;8.710;2023-04-21T01:05:09;15.70;;;9.50;;
45358;SDS011;31096;49.292;8.710;2023-04-21T01:10:01;15.33;;;9.23;;
45358;SDS011;31096;49.292;8.710;2023-04-21T01:14:52;17.95;;;10.68;;
45358;SDS011;31096;49.292;8.710;2023-04-21T01:19:43;17.55;;;9.30;;
45358;SDS011;31096;49.292;8.710;2023-04-21T01:24:35;15.48;;;9.63;;
45358;SDS011;31096;49.292;8.710;2023-04-21T01:29:32;20.98;;;8.85;;
45358;SDS011;31096;49.292;8.710;2023-04-21T01:34:23;17.70;;;9.60;;
45358;SDS011;31096;49.292;8.710;2023-04-21T01:39:14;16.15;;;9.00;;
45358;SDS011;31096;49.292;8.710;2023-04-21T01:44:05;17.30;;;9.63;;
45358;SDS011;31096;49.292;8.710;2023-04-21T01:48:56;15.70;;;8.98;;
45358;SDS011;31096;49.292;8.710;2023-04-21T01:53:46;19.50;;;9.10;;
45358;SDS011;31096;49.292;8.710;2023-04-21T01:58:37;16.47;;;9.53;;
45358;SDS011;31096;49.292;8.710;2023-04-21T02:03:28;17.50;;;9.93;;
45358;SDS011;31096;49.292;8.710;2023-04-21T02:08:18;16.15;;;9.23;;
45358;SDS011;31096;49.292;8.710;2023-04-21T02:13:09;15.70;;;9.87;;
45358;SDS011;31096;49.292;8.710;2023-04-21T02:17:59;16.00;;;9.13;;
45358;SDS011;31096;49.292;8.710;2023-04-21T02:22:50;15.13;;;9.15;;
45358;SDS011;31096;49.292;8.710;2023-04-21T02:27:41;14.60;;;8.50;;
45358;SDS011;31096;49.292;8.710;2023-04-21T02:32:31;13.97;;;8.10;;
45358;SDS011;31096;49.292;8.710;2023-04-21T02:37:22;16.63;;;9.57;;
45358;SDS011;31096;49.292;8.710;2023-04-21T02:42:13;17.40;;;9.53;;
45358;SDS011;31096;49.292;8.710;2023-04-21T02:47:04;17.05;;;9.27;;
45358;SDS011;31096;49.292;8.710;2023-04-21T02:51:56;16.47;;;9.00;;
45358;SDS011;31096;49.292;8.710;2023-04-21T02:56:47;15.48;;;7.85;;
45358;SDS011;31096;49.292;8.710;2023-04-21T03:01:38;15.23;;;8.17;;
45358;SDS011;31096;49.292;8.710;2023-04-21T03:06:28;15.17;;;8.93;;
45358;SDS011;31096;49.292;8.710;2023-04-21T03:11:19;14.27;;;8.53;;
45358;SDS011;31096;49.292;8.710;2023-04-21T03:16:09;13.35;;;7.72;;
45358;SDS011;31096;49.292;8.710;2023-04-21T03:21:00;14.77;;;8.00;;
45358;SDS011;31096;49.292;8.710;2023-04-21T03:25:51;13.93;;;8.90;;
45358;SDS011;31096;49.292;8.710;2023-04-21T03:30:41;14.80;;;8.27;;
45358;SDS011;31096;49.292;8.710;2023-04-21T03:35:32;15.50;;;9.13;;
45358;SDS011;31096;49.292;8.710;2023-04-21T03:40:23;17.30;;;9.23;;
45358;SDS011;31096;49.292;8.710;2023-04-21T03:45:14;13.85;;;8.18;;
45358;SDS011;31096;49.292;8.710;2023-04-21T03:50:05;13.83;;;8.33;;
45358;SDS011;31096;49.292;8.710;2023-04-21T03:54:56;15.05;;;8.63;;
45358;SDS011;31096;49.292;8.710;2023-04-21T03:59:47;14.90;;;8.53;;
45358;SDS011;31096;49.292;8.710;2023-04-21T04:04:37;16.42;;;9.15;;
45358;SDS011;31096;49.292;8.710;2023-04-21T04:09:28;14.77;;;8.25;;
45358;SDS011;31096;49.292;8.710;2023-04-21T04:14:19;13.57;;;8.53;;
45358;SDS011;31096;49.292;8.710;2023-04-21T04:19:10;15.23;;;8.07;;
45358;SDS011;31096;49.292;8.710;2023-04-21T04:24:01;13.13;;;7.70;;
45358;SDS011;31096;49.292;8.710;2023-04-21T04:28:52;15.35;;;8.32;;
45358;SDS011;31096;49.292;8.710;2023-04-21T04:33:45;11.80;;;7.30;;
45358;SDS011;31096;49.292;8.710;2023-04-21T04:38:36;14.02;;;7.43;;
45358;SDS011;31096;49.292;8.710;2023-04-21T04:43:26;11.63;;;6.67;;
45358;SDS011;31096;49.292;8.710;2023-04-21T04:48:17;14.38;;;7.47;;
45358;SDS011;31096;49.292;8.710;2023-04-21T04:53:08;11.67;;;7.23;;
45358;SDS011;31096;49.292;8.710;2023-04-21T04:57:59;11.57;;;7.13;;
45358;SDS011;31096;49.292;8.710;2023-04-21T05:02:50;13.73;;;7.00;;
45358;SDS011;31096;49.292;8.710;2023-04-21T05:07:41;13.98;;;8.82;;
45358;SDS011;31096;49.292;8.710;2023-04-21T05:12:32;13.10;;;8.13;;
45358;SDS011;31096;49.292;8.710;2023-04-21T05:17:22;13.07;;;7.53;;
45358;SDS011;31096;49.292;8.710;2023-04-21T05:22:13;13.30;;;7.55;;
45358;SDS011;31096;49.292;8.710;2023-04-21T05:27:04;12.30;;;7.53;;
45358;SDS011;31096;49.292;8.710;2023-04-21T05:31:54;11.60;;;6.83;;
45358;SDS011;31096;49.292;8.710;2023-04-21T05:36:45;11.60;;;7.30;;
45358;SDS011;31096;49.292;8.710;2023-04-21T05:41:37;11.07;;;6.60;;
45358;SDS011;31096;49.292;8.710;2023-04-21T05:46:28;12.68;;;7.63;;
45358;SDS011;31096;49.292;8.710;2023-04-21T05:51:19;12.00;;;7.20;;
45358;SDS011;31096;49.292;8.710;2023-04-21T05:56:10;11.60;;;6.83;;
45358;SDS011;31096;49.292;8.710;2023-04-21T06:01:01;12.02;;;6.97;;
45358;SDS011;31096;49.292;8.710;2023-04-21T06:05:56;12.77;;;7.50;;
45358;SDS011;31096;49.292;8.710;2023-04-21T06:10:52;11.48;;;6.25;;
45358;SDS011;31096;49.292;8.710;2023-04-21T06:15:43;11.67;;;6.47;;
45358;SDS011;31096;49.292;8.710;2023-04-21T06:20:33;10.38;;;6.10;;
45358;SDS011;31096;49.292;8.710;2023-04-21T06:25:24;10.63;;;6.80;;
45358;SDS011;31096;49.292;8.710;2023-04-21T06:30:15;11.23;;;6.95;;
45358;SDS011;31096;49.292;8.710;2023-04-21T06:35:06;12.27;;;6.97;;
45358;SDS011;31096;49.292;8.710;2023-04-21T06:39:58;12.65;;;7.20;;
45358;SDS011;31096;49.292;8.710;2023-04-21T06:44:48;11.20;;;6.60;;
45358;SDS011;31096;49.292;8.710;2023-04-21T06:49:39;9.90;;;5.72;;
45358;SDS011;31096;49.292;8.710;2023-04-21T06:54:30;9.37;;;6.00;;
45358;SDS011;31096;49.292;8.710;2023-04-21T06:59:21;10.70;;;6.33;;
45358;SDS011;31096;49.292;8.710;2023-04-21T07:04:12;11.27;;;7.15;;
45358;SDS011;31096;49.292;8.710;2023-04-21T07:09:02;12.97;;;8.30;;
45358;SDS011;31096;49.292;8.710;2023-04-21T07:13:54;11.88;;;7.20;;
45358;SDS011;31096;49.292;8.710;2023-04-21T07:18:45;10.80;;;6.60;;
45358;SDS011;31096;49.292;8.710;2023-04-21T07:23:36;11.13;;;7.23;;
45358;SDS011;31096;49.292;8.710;2023-04-21T07:28:26;12.68;;;8.25;;
45358;SDS011;31096;49.292;8.710;2023-04-21T07:33:17;12.80;;;7.77;;
45358;SDS011;31096;49.292;8.710;2023-04-21T07:38:08;12.77;;;7.60;;
45358;SDS011;31096;49.292;8.710;2023-04-21T07:42:58;11.70;;;7.15;;
45358;SDS011;31096;49.292;8.710;2023-04-21T07:47:49;12.00;;;7.40;;
45358;SDS011;31096;49.292;8.710;2023-04-21T07:52:40;11.23;;;7.18;;
45358;SDS011;31096;49.292;8.710;2023-04-21T07:57:32;11.00;;;7.33;;
45358;SDS011;31096;49.292;8.710;2023-04-21T08:02:27;10.15;;;6.47;;
45358;SDS011;31096;49.292;8.710;2023-04-21T08:07:18;10.57;;;6.30;;
45358;SDS011;31096;49.292;8.710;2023-04-21T08:12:08;10.93;;;7.07;;
45358;SDS011;31096;49.292;8.710;2023-04-21T08:16:59;11.07;;;6.13;;
45358;SDS011;31096;49.292;8.710;2023-04-21T08:21:51;10.52;;;6.43;;
45358;SDS011;31096;49.292;8.710;2023-04-21T08:26:41;9.83;;;6.47;;
45358;SDS011;31096;49.292;8.710;2023-04-21T08:31:33;10.88;;;7.32;;
45358;SDS011;31096;49.292;8.710;2023-04-21T08:36:24;11.60;;;7.43;;
45358;SDS011;31096;49.292;8.710;2023-04-21T08:41:15;10.17;;;6.83;;
45358;SDS011;31096;49.292;8.710;2023-04-21T08:46:06;10.15;;;7.05;;
45358;SDS011;31096;49.292;8.710;2023-04-21T08:50:57;9.73;;;5.93;;
45358;SDS011;31096;49.292;8.710;2023-04-21T08:55:51;9.82;;;6.30;;
45358;SDS011;31096;49.292;8.710;2023-04-21T09:00:47;9.03;;;6.33;;
45358;SDS011;31096;49.292;8.710;2023-04-21T09:05:39;9.85;;;6.40;;
45358;SDS011;31096;49.292;8.710;2023-04-21T09:10:30;9.53;;;6.00;;
45358;SDS011;31096;49.292;8.710;2023-04-21T09:15:20;9.47;;;6.40;;
45358;SDS011;31096;49.292;8.710;2023-04-21T09:25:03;10.43;;;6.47;;
45358;SDS011;31096;49.292;8.710;2023-04-21T09:29:55;11.60;;;7.15;;
45358;SDS011;31096;49.292;8.710;2023-04-21T09:34:58;11.85;;;7.18;;
45358;SDS011;31096;49.292;8.710;2023-04-21T09:39:49;9.60;;;6.27;;
45358;SDS011;31096;49.292;8.710;2023-04-21T09:44:40;10.80;;;7.25;;
45358;SDS011;31096;49.292;8.710;2023-04-21T09:49:33;11.90;;;6.80;;
45358;SDS011;31096;49.292;8.710;2023-04-21T09:54:33;10.70;;;6.68;;
45358;SDS011;31096;49.292;8.710;2023-04-21T09:59:36;9.82;;;6.38;;
45358;SDS011;31096;49.292;8.710;2023-04-21T10:04:30;9.97;;;6.53;;
45358;SDS011;31096;49.292;8.710;2023-04-21T10:09:24;14.23;;;6.90;;
45358;SDS011;31096;49.292;8.710;2023-04-21T10:14:16;11.10;;;7.43;;
45358;SDS011;31096;49.292;8.710;2023-04-21T10:19:29;9.88;;;6.95;;
45358;SDS011;31096;49.292;8.710;2023-04-21T10:24:27;9.67;;;6.90;;
45358;SDS011;31096;49.292;8.710;2023-04-21T10:29:27;9.73;;;7.00;;
45358;SDS011;31096;49.292;8.710;2023-04-21T10:44:15;10.32;;;7.03;;
45358;SDS011;31096;49.292;8.710;2023-04-21T10:49:25;12.85;;;7.65;;
45358;SDS011;31096;49.292;8.710;2023-04-21T10:54:22;11.10;;;7.47;;
45358;SDS011;31096;49.292;8.710;2023-04-21T10:59:18;11.33;;;7.90;;
45358;SDS011;31096;49.292;8.710;2023-04-21T11:04:13;11.32;;;7.97;;
45358;SDS011;31096;49.292;8.710;2023-04-21T11:09:10;13.65;;;9.13;;
45358;SDS011;31096;49.292;8.710;2023-04-21T11:14:01;13.13;;;9.13;;
45358;SDS011;31096;49.292;8.710;2023-04-21T11:18:52;15.18;;;8.98;;
45358;SDS011;31096;49.292;8.710;2023-04-21T11:28:42;11.70;;;7.95;;
45358;SDS011;31096;49.292;8.710;2023-04-21T11:33:36;12.20;;;7.97;;
45358;SDS011;31096;49.292;8.710;2023-04-21T11:38:35;16.58;;;9.70;;
45358;SDS011;31096;49.292;8.710;2023-04-21T11:43:29;13.05;;;8.25;;
45358;SDS011;31096;49.292;8.710;2023-04-21T11:48:20;11.27;;;8.00;;
45358;SDS011;31096;49.292;8.710;2023-04-21T11:53:12;12.40;;;8.33;;
45358;SDS011;31096;49.292;8.710;2023-04-21T11:58:04;10.03;;;6.80;;
45358;SDS011;31096;49.292;8.710;2023-04-21T12:02:55;11.63;;;8.07;;
45358;SDS011;31096;49.292;8.710;2023-04-21T12:07:46;13.38;;;7.97;;
45358;SDS011;31096;49.292;8.710;2023-04-21T12:12:38;13.93;;;9.03;;
45358;SDS011;31096;49.292;8.710;2023-04-21T12:17:46;12.20;;;8.85;;
45358;SDS011;31096;49.292;8.710;2023-04-21T12:22:39;12.32;;;7.95;;
45358;SDS011;31096;49.292;8.710;2023-04-21T12:27:30;11.67;;;8.53;;
45358;SDS011;31096;49.292;8.710;2023-04-21T12:32:21;13.37;;;9.00;;
45358;SDS011;31096;49.292;8.710;2023-04-21T12:37:13;14.33;;;10.10;;
45358;SDS011;31096;49.292;8.710;2023-04-21T12:42:04;13.25;;;9.90;;
45358;SDS011;31096;49.292;8.710;2023-04-21T12:46:55;14.70;;;10.43;;
45358;SDS011;31096;49.292;8.710;2023-04-21T12:51:47;15.25;;;9.98;;
45358;SDS011;31096;49.292;8.710;2023-04-21T12:56:38;14.15;;;9.13;;
45358;SDS011;31096;49.292;8.710;2023-04-21T13:01:29;14.07;;;8.33;;
45358;SDS011;31096;49.292;8.710;2023-04-21T13:06:20;11.82;;;8.77;;
45358;SDS011;31096;49.292;8.710;2023-04-21T13:11:11;12.53;;;8.93;;
45358;SDS011;31096;49.292;8.710;2023-04-21T13:16:01;11.80;;;8.90;;
45358;SDS011;31096;49.292;8.710;2023-04-21T13:20:52;12.80;;;9.50;;
45358;SDS011;31096;49.292;8.710;2023-04-21T13:25:43;12.00;;;9.23;;
45358;SDS011;31096;49.292;8.710;2023-04-21T13:30:34;12.33;;;8.47;;
45358;SDS011;31096;49.292;8.710;2023-04-21T13:35:25;13.05;;;8.27;;
45358;SDS011;31096;49.292;8.710;2023-04-21T13:40:16;12.33;;;9.13;;
45358;SDS011;31096;49.292;8.710;2023-04-21T13:45:07;12.15;;;8.77;;
45358;SDS011;31096;49.292;8.710;2023-04-21T13:49:59;12.50;;;8.53;;
45358;SDS011;31096;49.292;8.710;2023-04-21T13:54:51;13.35;;;9.02;;
45358;SDS011;31096;49.292;8.710;2023-04-21T13:59:42;11.73;;;8.55;;
45358;SDS011;31096;49.292;8.710;2023-04-21T14:04:33;12.60;;;9.17;;
45358;SDS011;31096;49.292;8.710;2023-04-21T14:09:25;11.77;;;8.38;;
45358;SDS011;31096;49.292;8.710;2023-04-21T14:14:16;10.37;;;8.20;;
45358;SDS011;31096;49.292;8.710;2023-04-21T14:19:07;14.02;;;8.43;;
45358;SDS011;31096;49.292;8.710;2023-04-21T14:23:59;11.47;;;7.63;;
45358;SDS011;31096;49.292;8.710;2023-04-21T14:28:50;11.77;;;8.13;;
45358;SDS011;31096;49.292;8.710;2023-04-21T14:33:40;11.10;;;8.43;;
45358;SDS011;31096;49.292;8.710;2023-04-21T14:38:34;10.00;;;7.33;;
45358;SDS011;31096;49.292;8.710;2023-04-21T14:43:26;9.83;;;6.50;;
45358;SDS011;31096;49.292;8.710;2023-04-21T14:48:17;13.00;;;7.83;;
45358;SDS011;31096;49.292;8.710;2023-04-21T14:53:08;11.13;;;8.20;;
45358;SDS011;31096;49.292;8.710;2023-04-21T14:57:59;10.75;;;8.18;;
45358;SDS011;31096;49.292;8.710;2023-04-21T15:02:49;11.03;;;7.80;;
45358;SDS011;31096;49.292;8.710;2023-04-21T15:07:40;13.23;;;7.57;;
45358;SDS011;31096;49.292;8.710;2023-04-21T15:12:31;10.77;;;7.80;;
45358;SDS011;31096;49.292;8.710;2023-04-21T15:17:22;11.32;;;6.97;;
45358;SDS011;31096;49.292;8.710;2023-04-21T15:22:13;10.20;;;7.63;;
45358;SDS011;31096;49.292;8.710;2023-04-21T15:27:04;8.32;;;5.80;;
45358;SDS011;31096;49.292;8.710;2023-04-21T15:31:54;9.97;;;7.07;;
45358;SDS011;31096;49.292;8.710;2023-04-21T15:36:45;10.13;;;7.63;;
45358;SDS011;31096;49.292;8.710;2023-04-21T15:41:36;9.52;;;6.55;;
45358;SDS011;31096;49.292;8.710;2023-04-21T15:46:26;8.60;;;6.43;;
45358;SDS011;31096;49.292;8.710;2023-04-21T15:51:17;9.87;;;6.33;;
45358;SDS011;31096;49.292;8.710;2023-04-21T15:56:08;10.27;;;6.53;;
45358;SDS011;31096;49.292;8.710;2023-04-21T16:01:02;8.67;;;5.87;;
45358;SDS011;31096;49.292;8.710;2023-04-21T16:05:54;8.17;;;6.27;;
45358;SDS011;31096;49.292;8.710;2023-04-21T16:10:45;8.05;;;6.10;;
45358;SDS011;31096;49.292;8.710;2023-04-21T16:15:35;8.20;;;6.00;;
45358;SDS011;31096;49.292;8.710;2023-04-21T16:20:26;8.40;;;6.15;;
45358;SDS011;31096;49.292;8.710;2023-04-21T16:25:18;8.30;;;5.43;;
45358;SDS011;31096;49.292;8.710;2023-04-21T16:30:09;7.70;;;5.47;;
45358;SDS011;31096;49.292;8.710;2023-04-21T16:35:00;8.50;;;5.23;;
45358;SDS011;31096;49.292;8.710;2023-04-21T16:39:56;7.13;;;4.87;;
45358;SDS011;31096;49.292;8.710;2023-04-21T16:44:47;6.13;;;3.47;;
45358;SDS011;31096;49.292;8.710;2023-04-21T16:49:39;5.95;;;2.60;;
45358;SDS011;31096;49.292;8.710;2023-04-21T16:54:30;4.70;;;2.43;;
45358;SDS011;31096;49.292;8.710;2023-04-21T16:59:21;4.60;;;2.53;;
45358;SDS011;31096;49.292;8.710;2023-04-21T17:04:13;4.93;;;2.50;;
45358;SDS011;31096;49.292;8.710;2023-04-21T17:09:05;3.70;;;2.40;;
45358;SDS011;31096;49.292;8.710;2023-04-21T17:13:57;4.65;;;2.40;;
45358;SDS011;31096;49.292;8.710;2023-04-21T17:18:47;4.00;;;2.40;;
45358;SDS011;31096;49.292;8.710;2023-04-21T17:23:38;4.30;;;2.10;;
45358;SDS011;31096;49.292;8.710;2023-04-21T17:28:29;4.77;;;2.60;;
45358;SDS011;31096;49.292;8.710;2023-04-21T17:33:21;4.40;;;2.35;;
45358;SDS011;31096;49.292;8.710;2023-04-21T17:38:11;4.40;;;2.57;;
45358;SDS011;31096;49.292;8.710;2023-04-21T17:43:02;4.05;;;2.40;;
45358;SDS011;31096;49.292;8.710;2023-04-21T17:47:53;4.40;;;2.53;;
45358;SDS011;31096;49.292;8.710;2023-04-21T17:52:43;5.27;;;2.80;;
45358;SDS011;31096;49.292;8.710;2023-04-21T17:57:34;4.72;;;2.60;;
45358;SDS011;31096;49.292;8.710;2023-04-21T18:02:25;4.70;;;2.57;;
45358;SDS011;31096;49.292;8.710;2023-04-21T18:07:15;4.67;;;2.50;;
45358;SDS011;31096;49.292;8.710;2023-04-21T18:12:06;4.82;;;2.80;;
45358;SDS011;31096;49.292;8.710;2023-04-21T18:16:57;4.00;;;2.40;;
45358;SDS011;31096;49.292;8.710;2023-04-21T18:21:48;4.03;;;2.00;;
45358;SDS011;31096;49.292;8.710;2023-04-21T18:26:38;3.85;;;2.33;;
45358;SDS011;31096;49.292;8.710;2023-04-21T18:31:29;4.10;;;2.10;;
45358;SDS011;31096;49.292;8.710;2023-04-21T18:36:21;4.25;;;2.22;;
45358;SDS011;31096;49.292;8.710;2023-04-21T18:41:12;5.43;;;2.50;;
45358;SDS011;31096;49.292;8.710;2023-04-21T18:46:03;3.80;;;1.87;;
45358;SDS011;31096;49.292;8.710;2023-04-21T18:50:54;3.50;;;2.10;;
45358;SDS011;31096;49.292;8.710;2023-04-21T18:55:45;6.57;;;1.90;;
45358;SDS011;31096;49.292;8.710;2023-04-21T19:00:36;3.25;;;1.63;;
45358;SDS011;31096;49.292;8.710;2023-04-21T19:05:28;3.30;;;1.70;;
45358;SDS011;31096;49.292;8.710;2023-04-21T19:10:20;3.90;;;2.30;;
45358;SDS011;31096;49.292;8.710;2023-04-21T19:15:10;3.30;;;1.73;;
45358;SDS011;31096;49.292;8.710;2023-04-21T19:20:01;3.90;;;2.00;;
45358;SDS011;31096;49.292;8.710;2023-04-21T19:24:52;3.80;;;2.00;;
45358;SDS011;31096;49.292;8.710;2023-04-21T19:29:45;4.05;;;2.10;;
45358;SDS011;31096;49.292;8.710;2023-04-21T19:34:35;4.87;;;2.20;;
45358;SDS011;31096;49.292;8.710;2023-04-21T19:39:26;3.97;;;2.70;;
45358;SDS011;31096;49.292;8.710;2023-04-21T19:44:17;5.03;;;2.30;;
45358;SDS011;31096;49.292;8.710;2023-04-21T19:49:08;3.83;;;2.20;;
45358;SDS011;31096;49.292;8.710;2023-04-21T19:54:02;5.32;;;2.80;;
45358;SDS011;31096;49.292;8.710;2023-04-21T19:58:53;4.80;;;2.80;;
45358;SDS011;31096;49.292;8.710;2023-04-21T20:03:44;5.00;;;3.25;;
45358;SDS011;31096;49.292;8.710;2023-04-21T20:08:36;5.10;;;3.17;;
45358;SDS011;31096;49.292;8.710;2023-04-21T20:13:27;5.30;;;2.58;;
45358;SDS011;31096;49.292;8.710;2023-04-21T20:18:18;4.13;;;2.80;;
45358;SDS011;31096;49.292;8.710;2023-04-21T20:23:09;4.10;;;2.40;;
45358;SDS011;31096;49.292;8.710;2023-04-21T20:28:00;7.30;;;2.87;;
45358;SDS011;31096;49.292;8.710;2023-04-21T20:32:51;4.57;;;3.00;;
45358;SDS011;31096;49.292;8.710;2023-04-21T20:37:42;4.93;;;2.53;;
45358;SDS011;31096;49.292;8.710;2023-04-21T20:42:36;6.03;;;2.85;;
45358;SDS011;31096;49.292;8.710;2023-04-21T20:47:28;4.75;;;2.83;;
45358;SDS011;31096;49.292;8.710;2023-04-21T20:52:19;4.17;;;2.27;;
45358;SDS011;31096;49.292;8.710;2023-04-21T20:57:10;4.03;;;2.20;;
45358;SDS011;31096;49.292;8.710;2023-04-21T21:02:01;3.93;;;2.13;;
45358;SDS011;31096;49.292;8.710;2023-04-21T21:06:52;4.43;;;2.47;;
45358;SDS011;31096;49.292;8.710;2023-04-21T21:11:42;3.90;;;2.43;;
45358;SDS011;31096;49.292;8.710;2023-04-21T21:16:33;4.40;;;2.53;;
45358;SDS011;31096;49.292;8.710;2023-04-21T21:21:24;4.17;;;2.40;;
45358;SDS011;31096;49.292;8.710;2023-04-21T21:26:16;4.67;;;2.53;;
45358;SDS011;31096;49.292;8.710;2023-04-21T21:31:06;4.50;;;2.38;;
45358;SDS011;31096;49.292;8.710;2023-04-21T21:35:57;4.00;;;2.57;;
45358;SDS011;31096;49.292;8.710;2023-04-21T21:40:48;4.53;;;2.27;;
45358;SDS011;31096;49.292;8.710;2023-04-21T21:45:39;4.40;;;2.60;;
45358;SDS011;31096;49.292;8.710;2023-04-21T21:50:30;4.57;;;2.80;;
45358;SDS011;31096;49.292;8.710;2023-04-21T21:55:20;4.72;;;2.70;;
45358;SDS011;31096;49.292;8.710;2023-04-21T22:00:12;4.50;;;2.80;;
45358;SDS011;31096;49.292;8.710;2023-04-21T22:05:03;4.88;;;2.80;;
45358;SDS011;31096;49.292;8.710;2023-04-21T22:09:54;5.07;;;3.20;;
45358;SDS011;31096;49.292;8.710;2023-04-21T22:14:48;4.33;;;2.33;;
45358;SDS011;31096;49.292;8.710;2023-04-21T22:19:39;4.97;;;2.80;;
45358;SDS011;31096;49.292;8.710;2023-04-21T22:24:30;4.87;;;3.03;;
45358;SDS011;31096;49.292;8.710;2023-04-21T22:29:21;4.38;;;2.60;;
45358;SDS011;31096;49.292;8.710;2023-04-21T22:34:12;4.87;;;2.70;;
45358;SDS011;31096;49.292;8.710;2023-04-21T22:39:05;7.47;;;3.00;;
45358;SDS011;31096;49.292;8.710;2023-04-21T22:43:56;5.00;;;2.90;;
45358;SDS011;31096;49.292;8.710;2023-04-21T22:48:46;4.10;;;2.60;;
45358;SDS011;31096;49.292;8.710;2023-04-21T22:53:37;5.15;;;2.78;;
45358;SDS011;31096;49.292;8.710;2023-04-21T22:58:28;4.33;;;2.60;;
45358;SDS011;31096;49.292;8.710;2023-04-21T23:03:19;4.55;;;3.00;;
45358;SDS011;31096;49.292;8.710;2023-04-21T23:08:11;4.50;;;2.63;;
45358;SDS011;31096;49.292;8.710;2023-04-21T23:13:01;4.57;;;2.80;;
45358;SDS011;31096;49.292;8.710;2023-04-21T23:17:52;5.77;;;2.33;;
45358;SDS011;31096;49.292;8.710;2023-04-21T23:22:43;5.07;;;2.50;;
45358;SDS011;31096;49.292;8.710;2023-04-21T23:27:34;3.92;;;2.38;;
45358;SDS011;31096;49.292;8.710;2023-04-21T23:32:25;4.70;;;2.80;;
45358;SDS011;31096;49.292;8.710;2023-04-21T23:37:15;4.37;;;2.57;;
45358;SDS011;31096;49.292;8.710;2023-04-21T23:42:06;3.77;;;2.13;;
45358;SDS011;31096;49.292;8.710;2023-04-21T23:46:58;4.20;;;2.00;;
45358;SDS011;31096;49.292;8.710;2023-04-21T23:51:49;4.70;;;2.20;;
45358;SDS011;31096;49.292;8.710;2023-04-21T23:56:40;4.65;;;2.80;;
